Time;durP1;ratioP1;P1;durP2;ratioP2;P2;SDS_P1;SDS_P2;PMS_P1;PMS_P2;Temp;Humidity;BMP_temperature;BMP_pressure;BME280_temperature;BME280_humidity;BME280_pressure;Samples;Min_cycle;Max_cycle;Signal;HPM_P1;HPM_P2
2022/01/17 00:01:12;;;;;;;;;23.50;21.00;;;;;2.68;71.42;102220.53;5017838;28;45558;-69
2022/01/17 00:03:38;;;;;;;;;24.75;20.25;;;;;2.66;71.65;102213.41;5019194;28;45368;-71
2022/01/17 00:06:04;;;;;;;;;25.75;22.75;;;;;2.68;71.72;102215.38;5018690;28;45352;-68
2022/01/17 00:08:29;;;;;;;;;30.75;25.00;;;;;2.71;72.00;102209.59;5018792;28;45285;-68
2022/01/17 00:10:55;;;;;;;;;25.25;23.00;;;;;2.73;71.92;102211.53;5018776;28;45394;-68
2022/01/17 00:13:25;;;;;;;;;28.00;26.00;;;;;2.74;71.84;102215.00;5018718;28;45482;-68
2022/01/17 00:15:57;;;;;;;;;31.75;29.25;;;;;2.74;71.59;102215.91;5018092;28;45616;-68
2022/01/17 00:20:51;;;;;;;;;99.33;73.67;;;;;2.67;71.68;102202.34;5018334;28;45525;-68
2022/01/17 00:23:17;;;;;;;;;131.00;109.00;;;;;2.69;71.27;102214.59;5018414;28;45513;-68
2022/01/17 00:25:43;;;;;;;;;38.75;34.50;;;;;2.65;72.10;102215.09;5018072;28;46102;-68
2022/01/17 00:28:08;;;;;;;;;39.00;37.25;;;;;2.57;72.29;102196.38;5018454;28;45931;-68
2022/01/17 00:30:34;;;;;;;;;36.75;32.00;;;;;2.66;72.39;102211.75;5018306;28;45434;-68
2022/01/17 00:33:00;;;;;;;;;49.50;44.00;;;;;2.61;71.97;102200.13;5017162;28;45546;-72
2022/01/17 00:35:25;;;;;;;;;34.75;32.25;;;;;2.66;71.60;102209.16;5016601;28;45714;-73
2022/01/17 00:37:52;;;;;;;;;70.50;53.00;;;;;2.54;71.40;102190.91;5017807;28;45444;-67
2022/01/17 00:40:19;;;;;;;;;106.67;81.33;;;;;2.58;71.35;102197.25;5018202;28;45431;-68
2022/01/17 00:42:45;;;;;;;;;37.75;34.00;;;;;2.56;71.35;102193.63;5018342;28;45502;-68
2022/01/17 00:45:15;;;;;;;;;23.25;21.25;;;;;2.62;70.88;102206.19;5018278;28;46120;-72
2022/01/17 00:47:41;;;;;;;;;23.00;20.00;;;;;2.59;71.14;102202.56;5018297;28;45311;-68
2022/01/17 00:50:08;;;;;;;;;31.00;24.75;;;;;2.47;71.59;102183.44;5017940;28;45438;-69
2022/01/17 00:52:34;;;;;;;;;38.25;37.00;;;;;2.55;72.32;102205.66;5018016;28;45417;-68
2022/01/17 00:54:59;;;;;;;;;32.00;30.00;;;;;2.58;71.96;102211.06;5017469;28;45945;-68
2022/01/17 00:57:25;;;;;;;;;30.25;27.25;;;;;2.43;71.98;102186.50;5017916;28;45419;-68
2022/01/17 00:59:50;;;;;;;;;29.75;27.50;;;;;2.54;72.30;102205.50;5018065;28;45305;-72
2022/01/17 01:02:16;;;;;;;;;37.75;33.50;;;;;2.50;72.23;102206.00;5017862;28;45333;-70
2022/01/17 01:04:42;;;;;;;;;27.50;26.75;;;;;2.45;73.14;102210.75;5017876;28;45856;-68
2022/01/17 01:07:07;;;;;;;;;28.50;27.00;;;;;2.44;72.68;102213.19;5017777;28;45415;-73
2022/01/17 01:09:41;;;;;;;;;34.75;31.50;;;;;2.44;72.90;102201.19;5017948;28;45583;-67
2022/01/17 01:12:07;;;;;;;;;35.00;31.75;;;;;2.29;72.99;102174.97;5016615;28;45527;-67
2022/01/17 01:14:33;;;;;;;;;27.25;25.25;;;;;2.41;72.40;102200.00;5017563;28;45221;-67
2022/01/17 01:17:06;;;;;;;;;26.75;24.00;;;;;2.44;72.19;102203.78;5017628;28;45365;-68
2022/01/17 01:19:40;;;;;;;;;24.50;21.00;;;;;2.45;72.12;102208.19;5017719;28;45282;-68
2022/01/17 01:27:42;;;;;;;;;23.75;20.50;;;;;2.38;72.53;102208.38;5017350;28;45451;-68
2022/01/17 01:30:11;;;;;;;;;21.75;20.25;;;;;2.37;73.07;102206.59;5017392;28;45470;-73
2022/01/17 01:32:44;;;;;;;;;25.25;21.25;;;;;2.35;73.13;102197.81;5017625;28;45561;-68
2022/01/17 01:35:13;;;;;;;;;23.25;22.25;;;;;2.37;72.99;102197.19;5016989;28;46054;-68
2022/01/17 01:37:38;;;;;;;;;27.75;23.25;;;;;2.43;73.01;102201.97;5017223;28;45312;-68
2022/01/17 01:40:05;;;;;;;;;26.75;21.25;;;;;2.42;72.21;102194.09;5017345;28;45473;-68
2022/01/17 01:42:33;;;;;;;;;26.25;24.25;;;;;2.43;72.38;102193.31;5017400;28;45324;-69
2022/01/17 01:44:58;;;;;;;;;26.75;23.75;;;;;2.25;72.41;102169.38;5014979;28;46202;-68
2022/01/17 01:47:26;;;;;;;;;26.00;24.25;;;;;2.43;72.55;102201.06;5017057;28;45297;-68
2022/01/17 01:49:52;;;;;;;;;29.00;26.00;;;;;2.42;72.54;102201.84;5015846;28;45344;-68
2022/01/17 01:52:19;;;;;;;;;24.00;23.25;;;;;2.38;72.25;102190.34;5017419;28;45241;-68
2022/01/17 01:54:44;;;;;;;;;23.00;21.75;;;;;2.31;72.90;102182.84;5017391;28;46147;-68
2022/01/17 01:57:11;;;;;;;;;27.25;24.25;;;;;2.38;72.79;102191.22;5016653;28;45513;-67
2022/01/17 01:59:37;;;;;;;;;27.75;24.75;;;;;2.38;73.17;102196.38;5016976;28;45501;-72
2022/01/17 02:02:04;;;;;;;;;23.50;20.75;;;;;2.29;72.90;102181.75;5017270;28;45280;-68
2022/01/17 02:04:29;;;;;;;;;30.25;23.75;;;;;2.27;72.84;102188.47;5016875;28;46114;-69
2022/01/17 02:06:55;;;;;;;;;20.25;16.75;;;;;2.33;69.92;102199.34;5016971;28;45491;-68
2022/01/17 02:09:23;;;;;;;;;26.75;24.00;;;;;2.00;71.98;102156.88;5017041;28;45367;-68
2022/01/17 02:11:50;;;;;;;;;31.75;27.25;;;;;2.17;73.61;102197.97;5017440;28;45513;-68
2022/01/17 02:14:16;;;;;;;;;24.75;22.00;;;;;2.07;74.05;102179.88;5016932;28;45516;-73
2022/01/17 02:16:44;;;;;;;;;23.25;20.50;;;;;2.11;74.07;102186.19;5016697;28;45453;-67
2022/01/17 02:19:10;;;;;;;;;29.00;26.00;;;;;2.25;74.16;102197.72;5016849;28;45445;-68
2022/01/17 02:21:46;;;;;;;;;23.50;21.75;;;;;2.30;74.13;102191.31;5016954;28;45428;-68
2022/01/17 02:24:14;;;;;;;;;24.50;24.00;;;;;2.37;74.20;102194.59;5016627;28;45464;-69
2022/01/17 02:26:40;;;;;;;;;30.00;28.25;;;;;2.43;73.11;102201.06;5016521;28;45414;-67
2022/01/17 02:29:06;;;;;;;;;25.50;21.25;;;;;2.42;72.47;102195.00;5016713;28;45401;-69
2022/01/17 02:31:32;;;;;;;;;24.75;21.25;;;;;2.45;72.95;102197.88;5016873;28;45431;-68
2022/01/17 02:33:58;;;;;;;;;28.00;24.00;;;;;2.36;71.69;102185.03;5016669;28;45518;-68
2022/01/17 02:36:24;;;;;;;;;33.25;31.50;;;;;2.45;72.15;102207.25;5016555;28;46210;-68
2022/01/17 02:38:50;;;;;;;;;35.00;31.50;;;;;2.46;72.38;102199.66;5017002;28;45465;-68
2022/01/17 02:41:16;;;;;;;;;29.25;26.25;;;;;2.46;71.54;102203.91;5017162;28;45494;-68
2022/01/17 02:43:42;;;;;;;;;31.00;28.75;;;;;2.43;72.76;102204.56;5016407;28;45265;-68
2022/01/17 02:48:36;;;;;;;;;27.75;27.50;;;;;2.29;73.37;102180.13;5016388;28;45174;-68
2022/01/17 02:51:03;;;;;;;;;33.25;31.00;;;;;2.40;73.19;102199.13;5016634;28;45439;-68
2022/01/17 02:53:29;;;;;;;;;33.50;31.75;;;;;2.42;73.34;102207.88;5016364;28;46303;-69
2022/01/17 02:56:01;;;;;;;;;33.25;30.25;;;;;2.43;73.09;102212.31;5015963;28;45469;-73
2022/01/17 02:58:28;;;;;;;;;37.00;31.00;;;;;2.39;72.96;102216.28;5026861;28;45299;-69
2022/01/17 03:00:57;;;;;;;;;32.00;27.75;;;;;2.35;72.82;102208.13;5038133;28;45511;-72
2022/01/17 03:03:29;;;;;;;;;25.00;22.00;;;;;2.32;73.11;102200.09;5037855;28;45458;-72
2022/01/17 03:05:56;;;;;;;;;24.25;22.25;;;;;2.28;72.99;102204.06;5035554;28;45485;-71
2022/01/17 03:08:24;;;;;;;;;25.75;20.25;;;;;2.15;73.77;102194.34;5037816;28;45454;-71
2022/01/17 03:10:51;;;;;;;;;20.25;19.50;;;;;2.14;74.05;102205.41;5038254;28;45944;-68
2022/01/17 03:13:31;;;;;;;;;23.50;20.00;;;;;2.10;74.31;102213.63;5038036;28;45527;-73
2022/01/17 03:15:59;;;;;;;;;26.00;24.25;;;;;2.04;74.00;102217.34;5035836;28;45410;-73
2022/01/17 03:18:27;;;;;;;;;26.00;22.75;;;;;1.99;73.78;102215.25;5036442;28;45525;-68
2022/01/17 03:20:53;;;;;;;;;23.00;22.00;;;;;1.92;74.11;102210.28;5035454;28;45570;-72
2022/01/17 03:23:19;;;;;;;;;23.50;19.75;;;;;1.88;74.28;102213.34;5037731;28;46012;-73
2022/01/17 03:25:45;;;;;;;;;26.00;25.50;;;;;1.75;74.49;102200.09;5037482;28;45311;-71
2022/01/17 03:28:11;;;;;;;;;20.00;18.25;;;;;1.82;74.16;102217.06;5037331;28;45188;-73
2022/01/17 03:30:36;;;;;;;;;19.00;15.75;;;;;1.84;71.76;102218.09;5037693;28;45405;-68
2022/01/17 03:33:09;;;;;;;;;21.75;19.75;;;;;1.84;73.40;102215.53;5037176;28;45478;-67
2022/01/17 03:35:39;;;;;;;;;21.25;19.75;;;;;1.79;75.42;102218.59;5050489;28;46171;-72
2022/01/17 03:38:09;;;;;;;;;20.00;16.75;;;;;1.81;75.84;102223.88;5037467;28;45651;-67
2022/01/17 03:40:36;;;;;;;;;25.75;23.00;;;;;1.78;75.84;102231.31;5028625;28;45428;-67
2022/01/17 03:43:03;;;;;;;;;22.25;20.25;;;;;1.64;75.75;102212.00;5037304;28;45224;-67
2022/01/17 03:45:30;;;;;;;;;21.50;21.00;;;;;1.60;75.39;102215.06;5037427;28;45236;-67
2022/01/17 03:47:55;;;;;;;;;25.00;23.25;;;;;1.65;75.65;102215.47;5037265;28;45593;-67
2022/01/17 03:50:24;;;;;;;;;22.50;22.25;;;;;1.75;75.11;102241.31;5037499;28;45456;-67
2022/01/17 03:52:50;;;;;;;;;22.00;20.50;;;;;1.76;74.82;102230.28;5037360;28;45378;-68
2022/01/17 03:55:19;;;;;;;;;22.75;21.25;;;;;1.70;75.20;102207.41;5035879;28;45472;-67
2022/01/17 03:57:46;;;;;;;;;23.00;22.00;;;;;1.76;75.53;102212.25;5037098;28;45534;-68
2022/01/17 04:00:17;;;;;;;;;22.00;20.50;;;;;1.90;75.32;102231.53;5037334;28;45710;-68
2022/01/17 04:02:43;;;;;;;;;25.25;23.00;;;;;1.85;74.75;102213.09;5037211;28;46239;-68
2022/01/17 04:05:09;;;;;;;;;25.25;23.00;;;;;1.91;74.95;102221.38;5038731;28;45269;-68
2022/01/17 04:07:35;;;;;;;;;20.00;17.50;;;;;2.10;75.63;102241.09;5038236;28;45406;-68
2022/01/17 04:10:00;;;;;;;;;26.25;20.00;;;;;2.13;74.71;102241.34;5038858;28;45529;-69
2022/01/17 04:12:26;;;;;;;;;20.25;19.25;;;;;2.14;75.07;102228.63;5038379;28;45338;-68
2022/01/17 04:14:54;;;;;;;;;23.25;20.00;;;;;2.02;74.86;102211.13;5038690;28;45404;-68
2022/01/17 04:17:23;;;;;;;;;21.50;19.00;;;;;2.14;74.41;102236.34;5038774;28;45208;-68
2022/01/17 04:19:52;;;;;;;;;22.50;19.00;;;;;1.98;74.57;102210.84;5039019;28;45208;-67
2022/01/17 04:22:18;;;;;;;;;22.25;18.25;;;;;2.09;74.72;102235.03;5038634;28;45687;-72
2022/01/17 04:24:43;;;;;;;;;20.75;19.50;;;;;1.96;74.39;102214.06;5036990;28;45488;-68
2022/01/17 04:27:09;;;;;;;;;20.25;18.50;;;;;2.04;74.51;102236.28;5038634;28;45462;-73
2022/01/17 04:29:38;;;;;;;;;20.25;18.75;;;;;1.99;75.05;102232.41;5038499;28;45423;-68
2022/01/17 04:32:04;;;;;;;;;23.25;20.75;;;;;1.94;75.40;102229.38;5038259;28;45320;-68
2022/01/17 04:34:32;;;;;;;;;15.00;14.75;;;;;1.89;75.37;102224.56;5038038;28;45249;-71
2022/01/17 04:36:58;;;;;;;;;16.75;16.75;;;;;1.74;75.32;102203.47;5038239;28;45843;-69
2022/01/17 04:39:23;;;;;;;;;15.75;14.75;;;;;1.72;75.39;102205.91;5038283;28;45378;-68
2022/01/17 04:41:49;;;;;;;;;26.25;21.75;;;;;1.75;75.24;102216.50;5036890;28;45558;-67
2022/01/17 04:46:59;;;;;;;;;25.00;19.00;;;;;1.66;75.27;102207.91;5038002;28;46279;-74
2022/01/17 04:49:24;;;;;;;;;20.25;19.00;;;;;1.53;75.00;102199.78;5038273;28;45447;-68
2022/01/17 04:51:53;;;;;;;;;21.75;20.25;;;;;1.57;75.17;102219.91;5037857;28;45765;-73
2022/01/17 04:54:39;;;;;;;;;24.25;19.00;;;;;1.37;75.04;102194.88;5038135;28;45312;-69
2022/01/17 04:57:05;;;;;;;;;22.75;19.25;;;;;1.35;76.14;102199.94;5037723;28;45391;-70
2022/01/17 04:59:30;;;;;;;;;28.25;25.75;;;;;0.92;76.79;102120.34;5037719;28;45430;-68
2022/01/17 05:01:56;;;;;;;;;26.50;23.25;;;;;1.47;76.47;102214.69;5037702;28;45702;-72
2022/01/17 05:04:21;;;;;;;;;27.00;25.25;;;;;1.47;76.27;102218.16;5038052;28;45412;-68
2022/01/17 05:06:47;;;;;;;;;26.25;24.75;;;;;1.49;76.62;102214.09;5037745;28;45307;-73
2022/01/17 05:09:12;;;;;;;;;29.50;27.00;;;;;1.53;76.20;102216.19;5037579;28;45517;-68
2022/01/17 05:11:40;;;;;;;;;23.25;21.50;;;;;1.54;75.58;102212.81;5037390;28;45378;-68
2022/01/17 05:14:05;;;;;;;;;39.25;31.00;;;;;1.56;75.57;102202.66;5037406;28;45482;-73
2022/01/17 05:16:36;;;;;;;;;30.50;27.75;;;;;1.64;75.30;102214.59;5037586;28;45375;-73
2022/01/17 05:21:46;;;;;;;;;46.25;41.25;;;;;1.73;74.89;102207.72;5037303;28;45716;-74
2022/01/17 05:24:11;;;;;;;;;39.00;36.00;;;;;1.78;74.95;102206.44;5037136;28;45418;-72
2022/01/17 05:26:37;;;;;;;;;45.75;39.75;;;;;1.77;74.72;102204.66;5036110;28;45482;-69
2022/01/17 05:29:02;;;;;;;;;40.00;33.25;;;;;1.79;74.82;102212.50;5037773;28;45514;-68
2022/01/17 05:31:28;;;;;;;;;29.25;25.50;;;;;1.66;74.37;102195.03;5037398;28;45428;-68
2022/01/17 05:33:53;;;;;;;;;47.50;40.75;;;;;1.60;74.34;102186.72;5037479;28;45387;-68
2022/01/17 05:36:19;;;;;;;;;36.25;33.25;;;;;1.75;74.04;102219.06;5037298;28;45456;-68
2022/01/17 05:38:44;;;;;;;;;39.75;30.50;;;;;1.74;73.91;102219.81;5037449;28;45245;-68
2022/01/17 05:41:10;;;;;;;;;27.25;23.00;;;;;1.74;74.70;102222.41;5037142;28;45233;-68
2022/01/17 05:43:36;;;;;;;;;41.25;37.75;;;;;1.78;75.56;102219.34;5037018;28;45307;-69
2022/01/17 05:46:01;;;;;;;;;33.50;30.00;;;;;1.76;76.19;102207.97;5037200;28;45395;-73
2022/01/17 05:48:27;;;;;;;;;30.00;27.75;;;;;1.85;75.64;102219.91;5037708;28;45853;-68
2022/01/17 05:50:53;;;;;;;;;36.50;30.00;;;;;1.89;75.49;102219.41;5037309;28;45489;-69
2022/01/17 05:53:18;;;;;;;;;28.75;25.25;;;;;1.92;75.08;102219.69;5035764;28;45286;-68
2022/01/17 05:55:45;;;;;;;;;31.25;29.50;;;;;1.92;74.80;102211.97;5034909;28;45483;-69
2022/01/17 05:58:11;;;;;;;;;32.75;31.25;;;;;1.86;75.17;102199.44;5035448;28;45458;-68
2022/01/17 06:00:37;;;;;;;;;35.50;28.50;;;;;2.01;74.53;102220.56;5034751;28;45374;-69
2022/01/17 06:03:02;;;;;;;;;28.75;27.00;;;;;1.51;74.28;102125.00;5034978;28;45803;-68
2022/01/17 06:05:28;;;;;;;;;32.75;24.25;;;;;2.07;74.71;102213.38;5035151;28;45532;-67
2022/01/17 06:07:53;;;;;;;;;24.00;23.25;;;;;2.09;74.67;102205.75;5035614;28;45575;-67
2022/01/17 06:10:19;;;;;;;;;33.75;29.50;;;;;1.99;74.66;102197.22;5034826;28;45492;-67
2022/01/17 06:12:45;;;;;;;;;36.75;30.00;;;;;2.09;74.60;102203.19;5034814;28;45402;-67
2022/01/17 06:15:10;;;;;;;;;25.00;23.25;;;;;2.14;74.49;102213.16;5034842;28;45355;-68
2022/01/17 06:17:36;;;;;;;;;27.75;26.00;;;;;2.10;74.96;102195.59;5035405;28;45435;-66
2022/01/17 06:20:04;;;;;;;;;24.25;21.75;;;;;2.13;75.39;102198.47;5034693;28;45853;-73
2022/01/17 06:22:29;;;;;;;;;28.25;24.25;;;;;2.21;75.66;102209.47;5034723;28;45343;-68
2022/01/17 06:24:55;;;;;;;;;31.00;29.50;;;;;2.24;75.46;102216.56;5035391;28;45448;-73
2022/01/17 06:27:20;;;;;;;;;21.50;21.00;;;;;2.28;75.44;102226.38;5035079;28;45464;-70
2022/01/17 06:29:46;;;;;;;;;22.50;21.00;;;;;2.31;75.00;102226.69;5034693;28;45504;-68
2022/01/17 06:32:11;;;;;;;;;23.00;20.75;;;;;2.24;75.04;102206.25;5037488;28;45501;-72
2022/01/17 06:34:37;;;;;;;;;24.75;19.25;;;;;2.41;75.36;102228.38;5038442;28;45434;-69
2022/01/17 06:37:03;;;;;;;;;36.50;29.00;;;;;2.39;74.92;102213.69;5038394;28;45374;-70
2022/01/17 06:39:28;;;;;;;;;26.75;25.50;;;;;2.45;74.32;102226.22;5037996;28;46153;-69
2022/01/17 06:41:54;;;;;;;;;31.75;28.25;;;;;2.50;74.15;102227.53;5039168;28;45430;-73
2022/01/17 06:44:20;;;;;;;;;31.00;27.25;;;;;2.52;74.25;102223.41;5039929;28;45534;-68
2022/01/17 06:46:45;;;;;;;;;31.00;28.00;;;;;2.52;73.68;102218.25;5040047;28;45364;-69
2022/01/17 06:49:11;;;;;;;;;50.00;41.00;;;;;2.56;73.37;102220.34;5038000;28;46346;-69
2022/01/17 06:51:37;;;;;;;;;47.00;40.50;;;;;2.55;73.56;102215.06;5037947;28;45486;-69
2022/01/17 06:54:03;;;;;;;;;41.00;35.00;;;;;2.59;73.38;102205.16;5038331;28;45605;-69
2022/01/17 06:56:28;;;;;;;;;35.00;32.00;;;;;2.60;73.09;102195.72;5038070;28;45470;-69
2022/01/17 06:58:55;;;;;;;;;35.50;31.00;;;;;2.62;73.58;102201.03;5037985;28;45490;-69
2022/01/17 07:01:21;;;;;;;;;28.50;27.25;;;;;2.65;73.32;102194.47;5038299;28;45332;-68
2022/01/17 07:03:49;;;;;;;;;28.25;23.75;;;;;2.69;73.73;102200.81;5039593;28;45427;-76
2022/01/17 07:06:14;;;;;;;;;26.75;23.75;;;;;2.59;73.51;102181.03;5039832;28;45367;-69
2022/01/17 07:08:40;;;;;;;;;33.25;32.25;;;;;2.73;73.51;102214.09;5039619;28;45962;-68
2022/01/17 07:11:07;;;;;;;;;37.00;33.00;;;;;2.71;73.52;102209.59;5039400;28;45286;-69
2022/01/17 07:13:33;;;;;;;;;33.75;31.75;;;;;2.76;73.70;102214.34;5038064;28;45518;-70
2022/01/17 07:15:58;;;;;;;;;41.75;32.00;;;;;2.70;73.24;102213.81;5039591;28;45524;-70
2022/01/17 07:18:24;;;;;;;;;48.00;41.50;;;;;2.81;73.80;102235.44;5038022;28;46595;-69
2022/01/17 07:20:50;;;;;;;;;41.75;38.75;;;;;2.73;73.25;102215.78;5039380;28;45261;-71
2022/01/17 07:23:16;;;;;;;;;70.75;53.00;;;;;2.72;73.43;102209.69;5039422;28;45426;-69
2022/01/17 07:25:41;;;;;;;;;95.33;74.67;;;;;2.84;73.59;102232.22;5039505;28;45490;-69
2022/01/17 07:28:08;;;;;;;;;64.50;53.25;;;;;2.83;73.17;102233.88;5038973;28;45463;-69
2022/01/17 07:30:35;;;;;;;;;60.25;47.00;;;;;2.86;73.52;102235.81;5038807;28;45375;-69
2022/01/17 07:33:02;;;;;;;;;472.00;368.00;;;;;2.84;72.84;102235.69;5039025;28;45496;-69
2022/01/17 07:35:27;;;;;;;;;98.67;74.33;;;;;2.86;72.78;102241.88;5039170;28;45513;-69
2022/01/17 07:37:53;;;;;;;;;94.67;69.33;;;;;2.87;73.03;102240.25;5038767;28;45536;-75
2022/01/17 07:40:18;;;;;;;;;79.50;58.25;;;;;2.89;72.69;102257.66;5038983;28;45278;-72
2022/01/17 07:42:44;;;;;;;;;63.00;51.75;;;;;2.92;72.83;102278.56;5038220;28;45461;-69
2022/01/17 07:45:13;;;;;;;;;47.00;43.00;;;;;2.94;73.04;102289.94;5034810;28;45836;-76
2022/01/17 07:50:22;;;;;;;;;37.50;26.00;;;;;2.97;72.86;102320.28;5037759;28;45487;-74
2022/01/17 07:52:50;;;;;;;;;30.25;26.25;;;;;3.02;72.81;102319.00;5037916;28;45580;-78
2022/01/17 07:55:17;;;;;;;;;60.00;48.50;;;;;3.04;72.69;102294.22;5038252;28;45581;-78
2022/01/17 07:57:43;;;;;;;;;76.00;60.00;;;;;3.06;72.29;102281.47;5037264;28;45351;-75
2022/01/17 08:00:12;;;;;;;;;67.00;55.50;;;;;3.06;71.99;102277.19;5037609;28;45710;-79
2022/01/17 08:02:37;;;;;;;;;96.00;76.33;;;;;3.07;72.73;102272.97;5037864;28;45374;-75
2022/01/17 08:05:03;;;;;;;;;66.50;53.50;;;;;2.96;72.85;102257.44;5036847;28;45450;-71
2022/01/17 08:07:29;;;;;;;;;61.75;48.50;;;;;3.06;72.86;102263.38;5037481;28;45392;-69
2022/01/17 08:09:56;;;;;;;;;52.25;44.00;;;;;3.12;72.56;102275.19;5036682;28;45360;-71
2022/01/17 08:12:21;;;;;;;;;45.75;40.25;;;;;3.01;72.45;102257.84;5037653;28;45354;-70
2022/01/17 08:14:47;;;;;;;;;48.25;42.50;;;;;3.15;72.78;102282.28;5037635;28;45480;-76
2022/01/17 08:17:13;;;;;;;;;44.00;39.75;;;;;3.06;72.72;102265.97;5036090;28;46303;-76
2022/01/17 08:19:39;;;;;;;;;46.00;40.75;;;;;3.11;72.87;102269.88;5037156;28;45478;-73
2022/01/17 08:22:06;;;;;;;;;54.25;46.00;;;;;3.22;72.90;102271.69;5036053;28;45501;-76
2022/01/17 08:24:35;;;;;;;;;68.50;51.50;;;;;3.23;72.66;102259.72;5038073;28;45852;-69
2022/01/17 08:27:02;;;;;;;;;85.75;64.00;;;;;3.41;72.08;102281.06;5037342;28;46242;-73
2022/01/17 08:29:28;;;;;;;;;62.25;47.25;;;;;3.48;72.42;102273.97;5037560;28;45192;-78
2022/01/17 08:31:59;;;;;;;;;52.00;39.00;;;;;3.56;71.88;102261.69;5036099;28;45505;-75
2022/01/17 08:34:25;;;;;;;;;38.00;35.25;;;;;3.66;71.39;102263.38;5037146;28;45455;-76
2022/01/17 08:36:51;;;;;;;;;49.75;41.25;;;;;3.75;71.13;102270.25;5036923;28;45415;-80
2022/01/17 08:39:16;;;;;;;;;50.00;43.50;;;;;3.82;70.79;102258.78;5037200;28;45364;-75
2022/01/17 08:41:42;;;;;;;;;44.25;39.75;;;;;3.79;70.90;102240.41;5037591;28;45334;-75
2022/01/17 08:44:20;;;;;;;;;49.75;43.75;;;;;3.99;70.13;102276.59;5041500;28;45359;-69
2022/01/17 08:46:46;;;;;;;;;57.00;46.00;;;;;3.99;69.60;102261.06;5050399;28;45149;-81
2022/01/17 08:49:12;;;;;;;;;54.00;42.25;;;;;4.16;69.74;102275.44;5053417;28;45412;-76
2022/01/17 08:51:38;;;;;;;;;89.67;71.33;;;;;4.12;69.75;102263.03;5061081;28;45319;-77
2022/01/17 08:54:05;;;;;;;;;65.00;51.75;;;;;4.28;69.49;102275.53;5051523;28;44801;-73
2022/01/17 08:56:32;;;;;;;;;79.67;62.67;;;;;4.45;69.51;102276.03;5038528;28;45502;-73
2022/01/17 08:58:59;;;;;;;;;15.00;14.25;;;;;4.67;68.48;102282.16;5037634;28;45435;-75
2022/01/17 09:01:25;;;;;;;;;37.00;30.50;;;;;4.87;68.85;102265.66;5038617;28;45434;-71
2022/01/17 09:03:51;;;;;;;;;37.00;35.75;;;;;5.15;67.68;102267.88;5036467;28;45468;-71
2022/01/17 09:06:17;;;;;;;;;56.75;46.00;;;;;5.42;67.57;102257.88;5037597;28;45557;-81
2022/01/17 09:08:43;;;;;;;;;52.50;45.00;;;;;5.76;66.21;102258.81;5036357;28;45499;-72
2022/01/17 09:11:09;;;;;;;;;36.25;34.00;;;;;6.26;65.73;102269.53;5036680;28;45496;-77
2022/01/17 09:13:35;;;;;;;;;73.25;57.75;;;;;6.42;64.98;102253.41;5035962;28;45657;-79
2022/01/17 09:16:01;;;;;;;;;40.25;34.50;;;;;6.81;63.97;102264.94;5034730;28;46378;-75
2022/01/17 09:18:27;;;;;;;;;216.25;179.00;;;;;7.06;63.43;102267.63;5026815;28;45409;-72
2022/01/17 09:20:53;;;;;;;;;204.50;182.75;;;;;7.27;62.77;102265.63;5023211;28;45444;-74
2022/01/17 09:23:18;;;;;;;;;66.75;52.25;;;;;7.46;62.11;102266.91;5026616;28;45508;-82
2022/01/17 09:25:45;;;;;;;;;51.00;42.25;;;;;7.43;62.24;102212.13;5025348;28;46140;-79
2022/01/17 09:28:11;;;;;;;;;44.50;38.75;;;;;7.99;61.66;102258.41;5025348;28;45508;-84
2022/01/17 09:30:37;;;;;;;;;65.75;51.75;;;;;8.11;61.08;102249.72;5030195;28;45336;-73
2022/01/17 09:33:03;;;;;;;;;64.75;53.00;;;;;8.49;60.69;102251.41;5025584;28;45589;-76
2022/01/17 09:35:30;;;;;;;;;61.75;49.25;;;;;9.78;59.27;102261.25;5024134;28;45702;-76
2022/01/17 09:37:56;;;;;;;;;53.00;44.00;;;;;11.39;53.66;102240.84;5019070;28;45780;-75
2022/01/17 09:40:21;;;;;;;;;63.50;49.25;;;;;11.64;52.08;102242.13;5026026;28;45380;-76
2022/01/17 09:42:47;;;;;;;;;35.25;33.50;;;;;11.18;52.61;102221.38;5027666;28;45525;-74
2022/01/17 09:45:16;;;;;;;;;33.50;29.75;;;;;11.49;53.13;102226.53;5024439;28;46025;-75
2022/01/17 09:47:43;;;;;;;;;36.25;33.00;;;;;12.39;50.98;102238.16;5023203;28;45452;-78
2022/01/17 09:50:17;;;;;;;;;42.25;36.25;;;;;14.37;46.41;102227.91;5025072;28;45524;-74
2022/01/17 09:52:51;;;;;;;;;35.50;32.50;;;;;15.54;44.04;102227.22;5026757;28;45442;-82
2022/01/17 09:55:21;;;;;;;;;28.50;25.75;;;;;14.93;44.02;102233.69;5015716;28;45540;-78
2022/01/17 09:58:00;;;;;;;;;31.50;28.75;;;;;14.76;44.10;102227.75;5035161;28;45401;-75
2022/01/17 10:00:28;;;;;;;;;25.75;22.25;;;;;15.04;44.42;102213.97;5036238;28;45447;-78
2022/01/17 10:02:57;;;;;;;;;20.75;20.00;;;;;15.45;42.43;102214.59;5035131;28;45302;-78
2022/01/17 10:05:24;;;;;;;;;21.75;19.50;;;;;16.76;40.00;102197.94;5035516;28;46192;-79
2022/01/17 10:07:53;;;;;;;;;23.00;20.75;;;;;16.21;40.82;102212.00;5051047;28;45593;-73
2022/01/17 10:10:40;;;;;;;;;23.50;20.25;;;;;15.28;41.48;102158.69;5035662;28;45894;-71
2022/01/17 10:13:15;;;;;;;;;20.50;19.25;;;;;15.17;42.32;102236.38;5035255;28;45594;-74
2022/01/17 10:15:58;;;;;;;;;19.25;16.25;;;;;16.24;41.74;102264.84;5035886;28;46131;-72
2022/01/17 10:18:28;;;;;;;;;21.50;18.00;;;;;17.79;39.32;102293.47;5035780;28;45407;-77
2022/01/17 10:21:02;;;;;;;;;22.25;21.25;;;;;18.75;35.95;102323.34;5035802;28;45392;-76
2022/01/17 10:23:48;;;;;;;;;17.75;16.00;;;;;19.50;35.18;102334.84;5035962;28;45486;-71
2022/01/17 10:26:48;;;;;;;;;23.25;20.50;;;;;20.13;33.72;102337.91;5035653;28;46241;-79
2022/01/17 10:37:23;;;;;;;;;23.50;21.75;;;;;20.81;32.50;102294.84;5036143;28;45909;-74
2022/01/17 10:39:59;;;;;;;;;22.00;21.75;;;;;20.69;32.99;102284.97;5036198;28;45677;-75
2022/01/17 10:42:41;;;;;;;;;21.75;20.25;;;;;20.52;31.87;102270.47;5027150;28;45372;-73
2022/01/17 10:45:21;;;;;;;;;21.50;20.25;;;;;20.41;32.92;102278.25;5027291;28;45478;-74
2022/01/17 10:47:52;;;;;;;;;23.00;22.00;;;;;20.30;33.27;102270.09;5023085;28;45527;-78
2022/01/17 10:50:28;;;;;;;;;27.00;26.25;;;;;20.25;33.18;102282.38;5025206;28;45402;-77
2022/01/17 10:52:56;;;;;;;;;28.50;27.75;;;;;20.20;33.19;102298.25;5025701;28;45699;-75
2022/01/17 10:55:30;;;;;;;;;27.00;26.25;;;;;20.05;33.17;102279.38;5025910;28;45649;-73
2022/01/17 10:57:59;;;;;;;;;29.00;28.25;;;;;19.94;33.38;102296.88;5024734;28;45986;-72
2022/01/17 11:00:28;;;;;;;;;27.75;26.50;;;;;19.67;33.66;102277.75;5025659;28;45344;-73
2022/01/17 11:02:57;;;;;;;;;26.00;24.25;;;;;19.01;34.85;102268.38;5021836;28;45546;-72
2022/01/17 11:05:27;;;;;;;;;27.25;26.25;;;;;18.98;34.49;102267.41;5032067;28;45439;-76
2022/01/17 11:07:55;;;;;;;;;26.00;25.00;;;;;18.76;34.05;102266.00;5024668;28;45517;-73
2022/01/17 11:10:27;;;;;;;;;29.00;27.75;;;;;18.24;34.82;102265.59;5023263;28;45500;-77
2022/01/17 11:12:56;;;;;;;;;30.50;28.75;;;;;18.15;35.22;102245.09;5024122;28;45612;-72
2022/01/17 11:15:24;;;;;;;;;26.25;24.50;;;;;18.17;35.36;102242.50;5026444;28;45585;-75
2022/01/17 11:17:53;;;;;;;;;27.50;26.75;;;;;17.82;35.44;102237.13;5034628;28;46276;-72
2022/01/17 11:20:21;;;;;;;;;28.00;27.25;;;;;17.03;36.69;102228.69;5029788;28;45837;-73
2022/01/17 11:22:50;;;;;;;;;28.75;27.25;;;;;16.22;38.09;102246.34;5037045;28;45757;-72
2022/01/17 11:25:20;;;;;;;;;25.50;25.00;;;;;15.38;39.92;102251.19;5034918;28;45483;-73
2022/01/17 11:27:46;;;;;;;;;28.00;25.75;;;;;14.63;41.71;102263.19;5032970;28;46225;-75
2022/01/17 11:30:12;;;;;;;;;28.50;25.50;;;;;14.18;43.12;102260.41;5037215;28;45506;-73
2022/01/17 11:32:39;;;;;;;;;30.25;25.00;;;;;13.75;43.97;102263.81;5030423;28;45544;-73
2022/01/17 11:35:06;;;;;;;;;26.75;26.00;;;;;13.36;44.36;102270.78;5027423;28;45485;-72
2022/01/17 11:37:37;;;;;;;;;26.50;24.25;;;;;13.01;45.72;102273.53;5031075;28;45432;-73
2022/01/17 11:40:06;;;;;;;;;29.00;26.50;;;;;12.82;46.34;102281.31;5018810;28;45478;-73
2022/01/17 11:42:37;;;;;;;;;27.25;25.75;;;;;12.65;46.55;102275.25;5018910;28;45363;-74